ソフィア の空港の天気 - METARとTAF

ソフィア空港 ( LBSF / SOF ) - ブルガリア ソフィア
飛行場実況気象(Metar)
観測時間07/17 11:00 EEST (07/17 08:00 UTC)
風向・風速西 3m/s
視程10km以上
天気現象
全天の4割程度の雲 雲底高度 1370m
気温21℃
湿度60%
気圧1013hPa
METARLBSF 170800Z 28005KT 230V330 9999 SCT045 21/13 Q1013 NOSIG
過去の天気等 Google飛行場航空写真 Wunderground天気予報

過去48時間のMETAR

飛行場予報(TAF)
発表時間: 7/17 08:00 EEST (7/17 05:00 UTC)
予報対象時間: 17日9時 EEST ~ 18日9時 EEST
風向・風速不定 2m/s
視程10km以上
なし
17日11時 EEST ~ 17日13時 EEST に徐々に
風向・風速北北西 5m/s
視程10km以上
全天の4割程度の雲 雲底高度 1520m
17日15時 EEST ~ 17日20時 EEST に 確率 30% で一時的に
視程5000m
天気現象しゅう雨
少しの積乱雲 雲底高度 910m
全天の8割程度の雲 雲底高度 1220m
17日21時 EEST ~ 17日23時 EEST に徐々に
風向・風速不定 2m/s
TAF LBSF 170500Z 1706/1806 VRB04KT CAVOK
BECMG 1708/1710 34010KT 9999 SCT050
PROB30 TEMPO 1712/1717 5000 SHRA FEW030CB BKN040
BECMG 1718/1720 VRB04KT